Las Vegas, Nevada
Traffic Map
Current Weather Conditions
Las Vegas, Nevada
Clear
Clear
12°
Feels Like: 12°
Wind Chill: 12° Ceiling: Unl
Heat Index: 12° Visibility: 10mi
Dew Point: -5° Wind: 8mph
Humidity: 31% Direction: 60° (ENE)
Pressure: 30.38in Gusts: 0mph
Raw Report DataKLAS 080756Z 06007KT 10SM CLR 12/M05 A3038 RMK AO2 SLP282 T01171050 402170044 $
Traffic Incident Summary
Active as of:
Severity:
Category:
InformationThere was an issue retrieving the traffic information for this location. Please try a different location or try again shortly.
Advertisements
Track Severe Weather on mobile